createdAt,value
2019-05-06T00:01:36.211Z,12.66
2019-05-06T00:04:06.054Z,12.61
2019-05-06T00:06:36.075Z,12.67
2019-05-06T00:09:06.793Z,12.77
2019-05-06T00:11:36.967Z,12.74
2019-05-06T00:14:07.005Z,12.85
2019-05-06T00:16:36.945Z,13.00
2019-05-06T00:19:06.881Z,13.03
2019-05-06T00:21:36.816Z,12.97
2019-05-06T00:24:06.739Z,12.90
2019-05-06T00:26:56.931Z,13.08
2019-05-06T00:29:26.662Z,13.17
2019-05-06T00:31:56.600Z,13.22
2019-05-06T00:34:26.524Z,13.28
2019-05-06T00:36:56.468Z,13.42
2019-05-06T00:39:28.034Z,13.53
2019-05-06T00:42:05.558Z,13.64
2019-05-06T00:44:35.584Z,13.75
2019-05-06T00:47:05.513Z,13.79
2019-05-06T00:49:35.549Z,13.82
2019-05-06T00:52:05.486Z,13.79
2019-05-06T00:54:36.636Z,13.76
2019-05-06T00:57:06.582Z,13.78
2019-05-06T00:59:36.553Z,13.83
2019-05-06T01:02:06.443Z,13.83
2019-05-06T01:04:37.547Z,13.90
2019-05-06T01:07:07.341Z,13.87
2019-05-06T01:09:37.278Z,13.91
2019-05-06T01:12:07.675Z,13.94
2019-05-06T01:14:47.986Z,13.93
2019-05-06T01:17:17.889Z,13.92
2019-05-06T01:19:47.855Z,13.84
2019-05-06T01:22:17.787Z,13.86
2019-05-06T01:24:47.726Z,13.79
2019-05-06T01:27:17.755Z,13.66
2019-05-06T01:29:47.596Z,13.55
2019-05-06T01:32:17.520Z,13.51
2019-05-06T01:34:49.011Z,13.39
2019-05-06T01:37:20.573Z,13.28
2019-05-06T01:39:54.898Z,13.30
2019-05-06T01:42:26.471Z,13.30
2019-05-06T01:44:56.414Z,13.22
2019-05-06T01:47:26.340Z,13.19
2019-05-06T01:49:56.231Z,13.15
2019-05-06T01:52:26.209Z,13.26
2019-05-06T01:54:55.971Z,13.25
2019-05-06T01:57:25.979Z,13.27
2019-05-06T01:59:56.017Z,13.23
2019-05-06T02:02:25.945Z,13.27
2019-05-06T02:04:55.782Z,13.27
2019-05-06T02:07:26.075Z,13.28
2019-05-06T02:09:56.061Z,13.30
2019-05-06T02:12:26.008Z,13.37
2019-05-06T02:14:55.928Z,13.35
2019-05-06T02:17:25.862Z,13.36
2019-05-06T02:19:55.801Z,13.29
2019-05-06T02:22:36.371Z,13.27
2019-05-06T02:25:09.784Z,13.32
2019-05-06T02:27:39.824Z,13.24
2019-05-06T02:30:20.286Z,13.20
2019-05-06T02:33:08.248Z,13.31
2019-05-06T02:35:39.791Z,13.27
2019-05-06T02:38:11.286Z,13.34
2019-05-06T02:40:42.659Z,13.30
2019-05-06T02:43:13.595Z,13.21
2019-05-06T02:45:43.589Z,13.32
2019-05-06T02:48:15.195Z,13.20
2019-05-06T02:50:46.698Z,13.22
2019-05-06T02:53:19.274Z,13.25
2019-05-06T02:55:49.185Z,13.21
2019-05-06T02:58:19.135Z,13.35
2019-05-06T03:00:49.062Z,13.43
2019-05-06T03:03:19.205Z,13.50
2019-05-06T03:05:49.248Z,13.66
2019-05-06T03:08:19.069Z,13.84
2019-05-06T03:10:49.014Z,13.98
2019-05-06T03:13:18.943Z,14.12
2019-05-06T03:15:48.882Z,14.21
2019-05-06T03:18:23.291Z,14.32
2019-05-06T03:20:59.358Z,14.37
2019-05-06T03:23:34.465Z,14.36
2019-05-06T03:26:05.812Z,14.28
2019-05-06T03:28:34.305Z,14.18
2019-05-06T03:31:06.932Z,14.17
2019-05-06T03:33:55.166Z,14.28
2019-05-06T03:36:18.829Z,14.32
2019-05-06T03:38:39.041Z,14.41
2019-05-06T03:41:08.987Z,14.60
2019-05-06T03:43:43.074Z,14.71
2019-05-06T03:46:23.214Z,14.80
2019-05-06T03:49:03.609Z,14.98
2019-05-06T03:51:34.184Z,15.03
2019-05-06T03:54:04.957Z,15.17
2019-05-06T03:56:36.717Z,15.30
2019-05-06T03:59:08.346Z,15.33
2019-05-06T04:01:38.642Z,15.38
2019-05-06T04:04:08.566Z,15.40
2019-05-06T04:06:38.599Z,15.39
2019-05-06T04:09:08.506Z,15.37
2019-05-06T04:11:43.055Z,15.38
2019-05-06T04:14:14.057Z,15.41
2019-05-06T04:16:54.527Z,15.42
2019-05-06T04:19:33.490Z,15.49
2019-05-06T04:22:05.119Z,15.64
2019-05-06T04:24:53.976Z,15.66
2019-05-06T04:27:33.566Z,15.56
2019-05-06T04:30:04.662Z,15.63
2019-05-06T04:32:35.330Z,15.76
2019-05-06T04:35:05.684Z,15.99
2019-05-06T04:37:35.811Z,15.93
2019-05-06T04:40:07.499Z,16.02
2019-05-06T04:42:38.859Z,16.09
2019-05-06T04:45:09.193Z,16.26
2019-05-06T04:47:39.124Z,16.32
2019-05-06T04:50:09.583Z,16.37
2019-05-06T04:52:39.524Z,16.40
2019-05-06T04:55:09.729Z,16.42
2019-05-06T04:57:43.738Z,16.45
2019-05-06T05:00:13.256Z,16.57
2019-05-06T05:02:46.447Z,16.53
2019-05-06T05:05:15.019Z,16.71
2019-05-06T05:07:44.959Z,16.93
2019-05-06T05:10:16.625Z,17.07
2019-05-06T05:13:03.852Z,17.04
2019-05-06T05:15:41.838Z,17.25
2019-05-06T05:18:16.390Z,17.37
2019-05-06T05:20:46.915Z,17.64
2019-05-06T05:23:16.292Z,17.79
2019-05-06T05:25:46.307Z,17.88
2019-05-06T05:28:16.234Z,17.96
2019-05-06T05:30:46.077Z,18.36
2019-05-06T05:33:16.214Z,18.81
2019-05-06T05:35:46.069Z,18.74
2019-05-06T05:38:17.099Z,18.95
2019-05-06T05:40:47.042Z,19.08
2019-05-06T05:43:32.614Z,19.19
2019-05-06T05:46:03.273Z,18.93
2019-05-06T05:48:34.123Z,19.12
2019-05-06T05:51:03.443Z,19.21
2019-05-06T05:53:33.514Z,19.53
2019-05-06T05:56:04.129Z,19.39
2019-05-06T05:58:34.917Z,19.06
2019-05-06T06:01:04.820Z,19.25
2019-05-06T06:03:34.748Z,19.22
2019-05-06T06:06:04.596Z,19.14
2019-05-06T06:08:36.912Z,19.20
2019-05-06T06:11:07.826Z,18.73
2019-05-06T06:13:37.717Z,18.70
2019-05-06T06:16:09.240Z,19.24
2019-05-06T06:18:55.838Z,19.36
2019-05-06T06:21:32.136Z,19.48
2019-05-06T06:24:03.689Z,19.70
2019-05-06T06:26:34.131Z,19.65
2019-05-06T06:29:04.067Z,19.72
2019-05-06T06:31:36.246Z,20.62
2019-05-06T06:34:07.731Z,20.73
2019-05-06T06:36:57.498Z,20.68
2019-05-06T06:39:29.898Z,20.34
2019-05-06T06:41:59.916Z,20.16
2019-05-06T06:44:33.107Z,19.96
2019-05-06T06:47:03.369Z,20.43
2019-05-06T06:49:33.417Z,20.55
2019-05-06T06:52:05.657Z,21.24
2019-05-06T06:54:35.018Z,21.13
2019-05-06T06:57:09.430Z,21.73
2019-05-06T06:59:42.558Z,22.30
2019-05-06T07:02:32.876Z,23.15
2019-05-06T07:05:21.595Z,23.61
2019-05-06T07:07:46.613Z,22.31
2019-05-06T07:10:32.407Z,22.28
2019-05-06T07:13:03.104Z,23.35
2019-05-06T07:15:33.759Z,24.25
2019-05-06T07:18:03.852Z,24.02
2019-05-06T07:20:35.432Z,23.42
2019-05-06T07:23:22.233Z,22.80
2019-05-06T07:25:53.785Z,23.21
2019-05-06T07:28:24.876Z,24.00
2019-05-06T07:30:55.416Z,24.02
2019-05-06T07:33:25.572Z,23.76
2019-05-06T07:35:55.482Z,23.40
2019-05-06T07:38:26.929Z,23.02
2019-05-06T07:41:05.111Z,23.85
2019-05-06T07:43:55.154Z,24.25
2019-05-06T07:46:42.729Z,23.74
2019-05-06T07:49:13.022Z,24.05
2019-05-06T07:51:42.968Z,24.15
2019-05-06T07:54:12.891Z,23.96
2019-05-06T07:56:42.985Z,23.99
2019-05-06T07:59:12.923Z,23.92
2019-05-06T08:01:44.200Z,24.07
2019-05-06T08:04:14.267Z,24.17
2019-05-06T08:06:44.306Z,23.57
2019-05-06T08:09:14.238Z,23.33
2019-05-06T08:11:44.186Z,23.73
2019-05-06T08:14:14.114Z,23.91
2019-05-06T08:16:45.679Z,23.83
2019-05-06T08:19:15.718Z,24.28
2019-05-06T08:21:47.288Z,25.05
2019-05-06T08:24:17.222Z,25.59
2019-05-06T08:26:48.172Z,25.55
2019-05-06T08:29:18.832Z,25.43
2019-05-06T08:31:48.760Z,25.05
2019-05-06T08:34:18.702Z,25.25
2019-05-06T08:36:50.281Z,25.93
2019-05-06T08:39:22.022Z,24.66
2019-05-06T08:41:52.900Z,24.16
2019-05-06T08:44:23.052Z,24.35
2019-05-06T08:46:54.107Z,25.20
2019-05-06T08:49:24.038Z,25.31
2019-05-06T08:51:55.614Z,26.64
2019-05-06T08:54:36.083Z,26.70
2019-05-06T08:57:06.018Z,27.36
2019-05-06T08:59:35.948Z,28.06
2019-05-06T09:02:06.914Z,27.54
2019-05-06T09:04:36.939Z,27.16
2019-05-06T09:07:06.974Z,26.15
2019-05-06T09:09:36.925Z,26.29
2019-05-06T09:12:06.743Z,26.79
2019-05-06T09:14:36.688Z,26.74
2019-05-06T09:17:07.539Z,27.96
2019-05-06T09:19:37.581Z,27.25
2019-05-06T09:22:07.401Z,26.52
2019-05-06T09:24:37.344Z,27.02
2019-05-06T09:27:14.844Z,28.10
2019-05-06T09:29:46.416Z,28.67
2019-05-06T09:32:17.828Z,27.44
2019-05-06T09:34:58.165Z,25.78
2019-05-06T09:37:27.502Z,25.69
2019-05-06T09:39:57.305Z,25.83
2019-05-06T09:42:27.440Z,27.17
2019-05-06T09:44:57.386Z,30.61
2019-05-06T09:47:32.988Z,28.02
2019-05-06T09:50:03.291Z,25.76
2019-05-06T09:52:33.457Z,26.24
2019-05-06T09:55:04.319Z,29.68
2019-05-06T09:57:35.760Z,32.24
2019-05-06T10:00:07.753Z,35.78
2019-05-06T10:02:39.204Z,32.36
2019-05-06T10:05:08.652Z,32.36
2019-05-06T10:07:38.556Z,35.75
2019-05-06T10:10:08.894Z,35.32
2019-05-06T10:12:38.832Z,36.58
2019-05-06T10:15:09.031Z,34.76
2019-05-06T10:17:38.307Z,32.77
2019-05-06T10:20:08.381Z,33.68
2019-05-06T10:22:37.780Z,32.26
2019-05-06T10:25:07.782Z,33.75
2019-05-06T10:27:38.569Z,32.31
2019-05-06T10:30:12.971Z,30.00
2019-05-06T10:32:46.286Z,29.36
2019-05-06T10:35:16.635Z,28.71
2019-05-06T10:37:47.379Z,28.39
2019-05-06T10:40:25.711Z,28.56
2019-05-06T10:43:07.188Z,28.28
2019-05-06T10:45:37.136Z,26.91
2019-05-06T10:48:07.063Z,27.13
2019-05-06T10:50:41.819Z,28.87
2019-05-06T10:53:19.047Z,29.22
2019-05-06T10:55:56.818Z,27.44
2019-05-06T10:58:26.954Z,27.37
2019-05-06T11:01:12.581Z,28.42
2019-05-06T11:03:43.365Z,28.62
2019-05-06T11:06:14.977Z,28.25
2019-05-06T11:08:45.111Z,27.46
2019-05-06T11:11:24.834Z,28.59
2019-05-06T11:13:46.821Z,30.04
2019-05-06T11:16:17.113Z,29.22
2019-05-06T11:18:47.062Z,27.94
2019-05-06T11:21:16.926Z,27.86
2019-05-06T11:23:47.016Z,27.83
2019-05-06T11:26:17.094Z,28.89
2019-05-06T11:28:48.675Z,27.77
2019-05-06T11:31:29.267Z,27.00
2019-05-06T11:34:07.050Z,26.30
2019-05-06T11:36:42.588Z,26.67
2019-05-06T11:39:14.221Z,26.79
2019-05-06T11:41:59.193Z,27.25
2019-05-06T11:44:15.791Z,27.45
2019-05-06T11:46:47.462Z,29.74
2019-05-06T11:49:17.397Z,28.85
2019-05-06T11:51:47.337Z,28.80
2019-05-06T11:54:20.734Z,29.85
2019-05-06T11:56:52.619Z,29.48
2019-05-06T11:59:22.732Z,31.52
2019-05-06T12:02:03.748Z,31.42
2019-05-06T12:04:33.787Z,31.17
2019-05-06T12:07:11.040Z,29.28
2019-05-06T12:09:35.544Z,31.19
2019-05-06T12:12:05.422Z,30.15
2019-05-06T12:14:35.357Z,28.49
2019-05-06T12:17:06.370Z,29.05
2019-05-06T12:19:36.428Z,27.88
2019-05-06T12:22:06.391Z,27.01
2019-05-06T12:24:36.325Z,26.28
2019-05-06T12:27:06.290Z,26.53
2019-05-06T12:29:38.362Z,32.99
2019-05-06T12:32:15.227Z,37.85
2019-05-06T12:34:45.450Z,35.88
2019-05-06T12:37:16.373Z,30.31
2019-05-06T12:39:47.797Z,29.72
2019-05-06T12:42:29.086Z,29.80
2019-05-06T12:45:03.291Z,30.33
2019-05-06T12:47:34.071Z,29.24
2019-05-06T12:50:05.176Z,26.74
2019-05-06T12:52:35.070Z,26.80
2019-05-06T12:55:20.365Z,26.79
2019-05-06T12:57:38.929Z,26.98
2019-05-06T13:00:13.064Z,26.74
2019-05-06T13:02:43.857Z,26.70
2019-05-06T13:05:15.574Z,26.37
2019-05-06T13:07:47.154Z,26.10
2019-05-06T13:10:19.025Z,25.99
2019-05-06T13:12:50.612Z,25.53
2019-05-06T13:15:20.632Z,25.77
2019-05-06T13:17:50.571Z,25.79
2019-05-06T13:20:22.786Z,25.60
2019-05-06T13:22:53.848Z,26.20
2019-05-06T13:25:23.769Z,26.04
2019-05-06T13:27:53.708Z,26.00
2019-05-06T13:30:24.349Z,25.21
2019-05-06T13:33:04.704Z,25.06
2019-05-06T13:35:35.055Z,25.60
2019-05-06T13:38:05.087Z,26.12
2019-05-06T13:40:39.655Z,26.29
2019-05-06T13:43:14.053Z,26.15
2019-05-06T13:46:02.961Z,25.98
2019-05-06T13:48:50.238Z,26.04
2019-05-06T13:51:24.769Z,25.99
2019-05-06T13:53:55.733Z,25.68
2019-05-06T13:56:25.778Z,25.38
2019-05-06T13:58:55.698Z,25.58
2019-05-06T14:01:43.854Z,25.51
2019-05-06T14:04:16.953Z,24.94
2019-05-06T14:06:46.899Z,25.01
2019-05-06T14:09:28.690Z,24.96
2019-05-06T14:11:48.501Z,25.03
2019-05-06T14:14:18.532Z,25.66
2019-05-06T14:16:48.570Z,25.57
2019-05-06T14:19:18.697Z,25.22
2019-05-06T14:21:48.648Z,24.87
2019-05-06T14:24:18.781Z,24.77
2019-05-06T14:26:59.256Z,25.10
2019-05-06T14:29:42.124Z,26.01
2019-05-06T14:32:14.851Z,27.44
2019-05-06T14:34:43.909Z,27.64
2019-05-06T14:37:13.853Z,26.71
2019-05-06T14:39:55.543Z,27.16
2019-05-06T14:42:22.035Z,27.79
2019-05-06T14:44:51.502Z,27.95
2019-05-06T14:47:26.034Z,27.13
2019-05-06T14:49:55.974Z,26.68
2019-05-06T14:52:25.956Z,26.60
2019-05-06T14:54:57.468Z,26.90
2019-05-06T14:57:27.506Z,26.76
2019-05-06T14:59:57.454Z,26.81
2019-05-06T15:02:28.297Z,26.94
2019-05-06T15:04:58.449Z,26.29
2019-05-06T15:07:28.382Z,26.12
2019-05-06T15:10:16.557Z,26.23
2019-05-06T15:12:33.329Z,26.29
2019-05-06T15:15:03.805Z,26.42
2019-05-06T15:17:36.655Z,25.68
2019-05-06T15:20:06.758Z,25.62
2019-05-06T15:22:36.778Z,25.96
2019-05-06T15:25:07.737Z,25.88
2019-05-06T15:27:37.587Z,25.79
2019-05-06T15:30:12.288Z,25.89
2019-05-06T15:32:41.636Z,25.86
2019-05-06T15:35:22.810Z,25.82
2019-05-06T15:37:54.387Z,25.95
2019-05-06T15:40:32.382Z,25.78
2019-05-06T15:42:56.214Z,25.52
2019-05-06T15:45:28.705Z,25.00
2019-05-06T15:47:58.723Z,24.72
2019-05-06T15:50:28.768Z,24.46
2019-05-06T15:52:58.787Z,24.05
2019-05-06T15:55:32.139Z,23.63
2019-05-06T15:58:03.442Z,23.34
2019-05-06T16:00:33.322Z,23.25
2019-05-06T16:03:03.965Z,23.05
2019-05-06T16:05:34.460Z,22.96
2019-05-06T16:08:03.858Z,22.82
2019-05-06T16:10:50.383Z,22.69
2019-05-06T16:13:05.467Z,22.56
2019-05-06T16:15:35.586Z,22.37
2019-05-06T16:18:05.522Z,22.18
2019-05-06T16:20:35.549Z,22.06
2019-05-06T16:23:10.406Z,21.96
2019-05-06T16:25:42.307Z,21.83
2019-05-06T16:28:12.910Z,21.72
2019-05-06T16:30:43.048Z,21.49
2019-05-06T16:33:15.954Z,21.38
2019-05-06T16:35:44.673Z,21.33
2019-05-06T16:38:14.869Z,21.12
2019-05-06T16:40:45.425Z,20.95
2019-05-06T16:43:16.733Z,20.66
2019-05-06T16:45:46.659Z,20.40
2019-05-06T16:48:16.597Z,20.20
2019-05-06T16:50:47.615Z,20.05
2019-05-06T16:53:18.005Z,19.88
2019-05-06T16:56:02.238Z,19.76
2019-05-06T16:58:33.913Z,19.56
2019-05-06T17:01:04.039Z,19.38
2019-05-06T17:03:42.813Z,19.33
2019-05-06T17:06:22.908Z,19.27
2019-05-06T17:08:54.128Z,19.21
2019-05-06T17:11:30.279Z,19.23
2019-05-06T17:13:55.551Z,19.13
2019-05-06T17:16:25.578Z,18.94
2019-05-06T17:18:56.781Z,18.78
2019-05-06T17:21:27.425Z,18.66
2019-05-06T17:23:57.315Z,18.65
2019-05-06T17:26:27.361Z,18.60
2019-05-06T17:29:02.555Z,18.52
2019-05-06T17:31:39.001Z,18.45
2019-05-06T17:34:27.129Z,18.27
2019-05-06T17:36:58.709Z,18.14
2019-05-06T17:39:29.388Z,18.03
2019-05-06T17:41:59.636Z,18.01
2019-05-06T17:44:29.543Z,17.89
2019-05-06T17:47:07.683Z,17.82
2019-05-06T17:49:39.271Z,17.72
2019-05-06T17:52:14.003Z,17.53
2019-05-06T17:54:43.982Z,17.44
2019-05-06T17:57:13.918Z,17.50
2019-05-06T17:59:43.955Z,17.48
2019-05-06T18:02:15.479Z,17.39
2019-05-06T18:04:45.569Z,17.22
2019-05-06T18:07:15.507Z,17.21
2019-05-06T18:09:47.898Z,17.22
2019-05-06T18:12:18.867Z,17.27
2019-05-06T18:14:50.426Z,17.04
2019-05-06T18:17:22.025Z,16.94
2019-05-06T18:19:52.055Z,16.83
2019-05-06T18:22:22.742Z,16.81
2019-05-06T18:24:52.829Z,16.72
2019-05-06T18:27:22.810Z,16.59
2019-05-06T18:29:53.366Z,16.34
2019-05-06T18:32:23.532Z,16.13
2019-05-06T18:34:53.474Z,16.09
2019-05-06T18:37:24.031Z,16.31
2019-05-06T18:39:53.268Z,16.31
2019-05-06T18:42:25.552Z,16.55
2019-05-06T18:44:55.496Z,16.52
2019-05-06T18:47:25.514Z,16.50
2019-05-06T18:49:55.466Z,16.51
2019-05-06T18:52:25.386Z,16.45
2019-05-06T18:54:55.339Z,16.42
2019-05-06T18:57:25.330Z,16.32
2019-05-06T18:59:56.203Z,16.08
2019-05-06T19:02:27.011Z,15.81
2019-05-06T19:04:59.338Z,15.61
2019-05-06T19:07:29.280Z,15.46
2019-05-06T19:10:12.965Z,15.45
2019-05-06T19:12:42.908Z,15.30
2019-05-06T19:15:13.204Z,15.23
2019-05-06T19:17:44.350Z,15.20
2019-05-06T19:20:15.617Z,15.19
2019-05-06T19:22:45.661Z,15.45
2019-05-06T19:25:15.932Z,15.36
2019-05-06T19:27:45.935Z,15.35
2019-05-06T19:30:16.285Z,15.37
2019-05-06T19:32:46.473Z,15.37
2019-05-06T19:35:16.673Z,15.27
2019-05-06T19:37:46.715Z,15.18
2019-05-06T19:40:16.623Z,15.05
2019-05-06T19:42:50.022Z,14.97
2019-05-06T19:45:18.185Z,14.93
2019-05-06T19:47:48.016Z,15.23
2019-05-06T19:50:20.995Z,15.42
2019-05-06T19:52:49.838Z,15.43
2019-05-06T19:55:22.967Z,15.37
2019-05-06T19:57:52.679Z,15.27
2019-05-06T20:00:23.263Z,15.35
2019-05-06T20:02:53.301Z,15.33
2019-05-06T20:05:24.867Z,15.40
2019-05-06T20:07:59.415Z,15.37
2019-05-06T20:10:47.549Z,15.28
2019-05-06T20:13:20.672Z,15.29
2019-05-06T20:15:49.155Z,15.45
2019-05-06T20:18:19.201Z,15.51
2019-05-06T20:20:49.099Z,15.80
2019-05-06T20:23:19.060Z,15.86
2019-05-06T20:25:49.109Z,15.93
2019-05-06T20:28:20.028Z,16.16
2019-05-06T20:30:52.899Z,16.33
2019-05-06T20:33:22.996Z,16.46
2019-05-06T20:35:53.922Z,16.55
2019-05-06T20:38:23.786Z,16.63
2019-05-06T20:40:53.720Z,16.72
2019-05-06T20:43:24.138Z,16.70
2019-05-06T20:45:54.104Z,16.68
2019-05-06T20:48:24.015Z,16.76
2019-05-06T20:50:53.867Z,16.75
2019-05-06T20:53:23.695Z,16.80
2019-05-06T20:55:53.634Z,16.88
2019-05-06T20:58:23.563Z,16.92
2019-05-06T21:00:53.505Z,16.98
2019-05-06T21:03:23.539Z,17.00
2019-05-06T21:05:53.477Z,17.03
2019-05-06T21:08:23.407Z,17.05
2019-05-06T21:10:53.451Z,17.05
2019-05-06T21:13:31.892Z,16.96
2019-05-06T21:15:55.016Z,16.95
2019-05-06T21:18:24.986Z,16.87
2019-05-06T21:20:54.931Z,16.85
2019-05-06T21:23:25.264Z,16.84
2019-05-06T21:25:55.220Z,16.87
2019-05-06T21:28:25.138Z,16.82
2019-05-06T21:30:54.983Z,16.80
2019-05-06T21:33:25.010Z,16.69
2019-05-06T21:35:54.942Z,16.78
2019-05-06T21:38:24.883Z,16.84
2019-05-06T21:40:54.820Z,16.72
2019-05-06T21:43:24.747Z,16.65
2019-05-06T21:45:54.684Z,16.61
2019-05-06T21:48:24.619Z,16.59
2019-05-06T21:50:54.560Z,16.53
2019-05-06T21:53:24.692Z,16.44
2019-05-06T21:55:54.595Z,16.33
2019-05-06T21:58:24.566Z,16.27
2019-05-06T22:00:56.541Z,16.27
2019-05-06T22:03:26.586Z,16.29
2019-05-06T22:05:56.520Z,16.22
2019-05-06T22:08:26.454Z,16.15
2019-05-06T22:10:56.387Z,16.11
2019-05-06T22:13:26.422Z,16.10
2019-05-06T22:15:56.456Z,16.11
2019-05-06T22:18:26.605Z,16.06
2019-05-06T22:21:06.965Z,16.07
2019-05-06T22:23:42.079Z,16.04
2019-05-06T22:26:16.007Z,16.03
2019-05-06T22:28:43.823Z,16.02
2019-05-06T22:31:13.740Z,16.01
2019-05-06T22:33:43.806Z,16.01
2019-05-06T22:36:13.738Z,16.03
2019-05-06T22:38:44.301Z,16.05
2019-05-06T22:41:14.621Z,16.05
2019-05-06T22:43:44.562Z,16.02
2019-05-06T22:46:14.600Z,16.01
2019-05-06T22:48:44.530Z,16.08
2019-05-06T22:51:15.483Z,16.11
2019-05-06T22:53:46.861Z,16.16
2019-05-06T22:56:16.792Z,16.14
2019-05-06T22:58:46.833Z,16.12
2019-05-06T23:01:18.317Z,16.06
2019-05-06T23:03:49.873Z,16.01
2019-05-06T23:06:21.892Z,15.95
2019-05-06T23:08:52.679Z,15.95
2019-05-06T23:11:22.648Z,15.89
2019-05-06T23:13:53.011Z,15.86
2019-05-06T23:16:22.328Z,15.81
2019-05-06T23:18:52.491Z,15.83
2019-05-06T23:21:23.214Z,15.81
2019-05-06T23:23:54.743Z,15.77
2019-05-06T23:26:24.623Z,15.75
2019-05-06T23:28:54.430Z,15.75
2019-05-06T23:31:24.657Z,15.75
2019-05-06T23:33:54.819Z,15.79
2019-05-06T23:36:24.839Z,15.76
2019-05-06T23:39:34.461Z,15.69
2019-05-06T23:42:53.352Z,15.69
2019-05-06T23:45:59.844Z,15.63
2019-05-06T23:49:05.877Z,15.60
2019-05-06T23:52:12.079Z,15.58
2019-05-06T23:55:18.565Z,15.56
2019-05-06T23:57:47.267Z,15.55
